Almont, MI

5:07 AM EDT on May 22, 2015 (GMT -0400)
Village of Leonard | | Change Station
CLOSE
Current Station
Personal Weather Station
Location: Leonard, MI
Elevation: 1014 ft
Nearby Weather Stations

Elev 1014 ft 42.87 °N, 83.15 °W | Updated 9 seconds ago

Partly Cloudy
Partly Cloudy
45.9 °F
Feels Like 46 °F
N
0.0
Wind Variable Wind from West
Gusts 0.0 mph

Today
High -- | Low -- °F
--% Chance of Precip.
Yesterday
High -- | Low -- °F
Precip. -- in
6:02 AM 8:55 PM
Waxing Crescent, 20% visible
Pressure 30.04 in
Visibility 10.0 miles
Clouds Mostly Cloudy 7000 ft
Windchill 46 °F
Dew Point 35 °F
Humidity 65%
Rainfall 0.00 in
Snow Depth Not available.
UV 0 out of 12
Pollen 9.30 out of 12
Air Quality Not available.
Flu Activity Local Activity
METAR KD95 220852Z AUTO 00000KT 10SM BKN070 07/00 A3004 RMK AO2 T00670002

More Conditions Fewer Conditions

Pressure 30.04 in
Visibility 10.0 miles
Clouds Mostly Cloudy 7000 ft
Windchill 46 °F
Dew Point 35 °F
Humidity 65%
Rainfall 0.00 in
Snow Depth Not available.
UV 0 out of 12
Pollen 9.30 out of 12
Air Quality Not available.
Flu Activity Local Activity
METAR KD95 220852Z AUTO 00000KT 10SM BKN070 07/00 A3004 RMK AO2 T00670002

More Conditions Fewer Conditions

10-Day Weather Forecast

Almanac

Astronomy

May. 22, 2015 Rise Set
Actual Time
Civil Twilight
Nautical Twilight
Astronomical Twilight
Moon
Length of Visible Light
Length of Day
Tomorrow will be .
, % of the Moon is Illuminated

Today's Extremes

State Highs State Lows

Community

WunderPhotos

Upload Photos

1,823,195 photos uploaded!

WunderBlogs® & News

Nearby

Air Quality

  Air Quality AQ Index Pollutant
Not available.

Snow Depth

Station Depth Elevation

Earthquake Activity

City Distance Mag. Time & Date
Minimum magnitude displayed is 2.5.

Coastal Water Temperatures

Place Temperature

Stations

Nearby Weather Stations

Station Location Temp. Windchill Dew Point Humidity Wind Precip. Elev Updated Type